Time;durP1;ratioP1;P1;durP2;ratioP2;P2;SDS_P1;SDS_P2;PMS_P1;PMS_P2;Temp;Humidity;BMP_temperature;BMP_pressure;BME280_temperature;BME280_humidity;BME280_pressure;Samples;Min_cycle;Max_cycle;Signal;HPM_P1;HPM_P2
2022/10/30 00:01:46;;;;;;;21.55;8.90;;;;;;;;;;5023178;28;20044;-78
2022/10/30 00:04:14;;;;;;;15.68;6.60;;;;;;;;;;5031452;28;20038;-78
2022/10/30 00:06:40;;;;;;;22.38;7.82;;;;;;;;;;5053947;28;20030;-78
2022/10/30 00:09:09;;;;;;;19.00;6.78;;;;;;;;;;5024220;28;20025;-78
2022/10/30 00:11:37;;;;;;;19.92;7.80;;;;;;;;;;5022102;28;20029;-78
2022/10/30 00:14:07;;;;;;;14.88;7.07;;;;;;;;;;5032312;28;20026;-78
2022/10/30 00:16:33;;;;;;;11.20;6.28;;;;;;;;;;5022409;28;20022;-78
2022/10/30 00:18:59;;;;;;;17.30;7.07;;;;;;;;;;5024069;28;20089;-78
2022/10/30 00:21:27;;;;;;;15.32;6.65;;;;;;;;;;5029336;28;20422;-78
2022/10/30 00:23:53;;;;;;;18.70;6.82;;;;;;;;;;5035604;28;20095;-78
2022/10/30 00:26:20;;;;;;;18.48;8.95;;;;;;;;;;5018637;28;20462;-78
2022/10/30 00:28:50;;;;;;;17.73;6.72;;;;;;;;;;5031954;28;20034;-78
2022/10/30 00:31:16;;;;;;;16.85;7.40;;;;;;;;;;5021936;28;20070;-78
2022/10/30 00:33:49;;;;;;;20.30;7.70;;;;;;;;;;5020525;28;20029;-78
2022/10/30 00:36:15;;;;;;;16.08;6.72;;;;;;;;;;5022309;28;20025;-78
2022/10/30 00:38:41;;;;;;;16.95;7.10;;;;;;;;;;5019248;28;20394;-78
2022/10/30 00:41:15;;;;;;;15.10;6.18;;;;;;;;;;5022799;28;20583;-78
2022/10/30 00:43:41;;;;;;;12.20;5.90;;;;;;;;;;5031891;28;20013;-78
2022/10/30 00:46:13;;;;;;;20.10;7.55;;;;;;;;;;5025078;28;20044;-78
2022/10/30 00:48:40;;;;;;;10.90;5.90;;;;;;;;;;5020828;28;20030;-77
2022/10/30 00:51:08;;;;;;;13.43;6.05;;;;;;;;;;5022035;28;20362;-78
2022/10/30 00:53:34;;;;;;;19.70;8.95;;;;;;;;;;5023461;28;20068;-78
2022/10/30 00:56:05;;;;;;;19.75;8.55;;;;;;;;;;5029449;28;20105;-77
2022/10/30 00:58:36;;;;;;;23.05;7.90;;;;;;;;;;5032713;28;20035;-78
2022/10/30 01:01:05;;;;;;;13.88;6.63;;;;;;;;;;5020104;28;20026;-78
2022/10/30 01:03:31;;;;;;;14.60;7.35;;;;;;;;;;5034157;28;20029;-78
2022/10/30 01:06:00;;;;;;;15.77;6.32;;;;;;;;;;5020748;28;20040;-78
2022/10/30 01:08:26;;;;;;;23.45;10.48;;;;;;;;;;5018301;28;20095;-78
2022/10/30 01:10:52;;;;;;;14.15;7.57;;;;;;;;;;5017990;28;20108;-77
2022/10/30 01:13:19;;;;;;;19.75;7.57;;;;;;;;;;5017661;28;20045;-78
2022/10/30 01:15:53;;;;;;;18.48;7.97;;;;;;;;;;5021097;28;20374;-78
2022/10/30 01:18:32;;;;;;;24.65;7.57;;;;;;;;;;5036708;28;20025;-78
2022/10/30 01:20:58;;;;;;;14.23;8.07;;;;;;;;;;5029218;28;20132;-78
2022/10/30 01:23:31;;;;;;;20.50;8.38;;;;;;;;;;5030252;28;20042;-78
2022/10/30 01:26:05;;;;;;;22.80;7.40;;;;;;;;;;5017031;28;20021;-78
2022/10/30 01:28:42;;;;;;;14.77;6.30;;;;;;;;;;5027361;28;20131;-78
2022/10/30 01:31:26;;;;;;;14.60;6.50;;;;;;;;;;5016675;28;20117;-78
2022/10/30 01:33:58;;;;;;;15.93;7.10;;;;;;;;;;5035213;28;20065;-80
2022/10/30 01:36:28;;;;;;;15.70;6.82;;;;;;;;;;5031811;28;20492;-80
2022/10/30 01:38:56;;;;;;;16.17;7.03;;;;;;;;;;5041899;28;20057;-77
2022/10/30 01:41:22;;;;;;;18.58;6.72;;;;;;;;;;5022798;28;20104;-77
2022/10/30 01:43:50;;;;;;;16.10;6.97;;;;;;;;;;5023098;28;20034;-80
2022/10/30 01:46:32;;;;;;;18.42;8.52;;;;;;;;;;5023170;28;20446;-79
2022/10/30 01:49:00;;;;;;;20.25;7.88;;;;;;;;;;5022123;28;20038;-77
2022/10/30 01:51:45;;;;;;;19.70;7.93;;;;;;;;;;5024379;28;20026;-77
2022/10/30 01:54:29;;;;;;;19.70;7.38;;;;;;;;;;5033623;28;20022;-77
2022/10/30 01:56:55;;;;;;;26.25;12.40;;;;;;;;;;5022596;28;20029;-77
2022/10/30 01:59:31;;;;;;;13.25;7.22;;;;;;;;;;5019558;28;20030;-80
2022/10/30 02:01:57;;;;;;;18.15;8.05;;;;;;;;;;5030432;28;20034;-80
2022/10/30 02:04:24;;;;;;;21.25;7.80;;;;;;;;;;5025836;28;20069;-77
2022/10/30 02:06:50;;;;;;;20.33;7.83;;;;;;;;;;5021862;28;20486;-77
2022/10/30 02:09:19;;;;;;;14.03;7.60;;;;;;;;;;5037549;28;20113;-80
2022/10/30 02:11:46;;;;;;;16.33;7.97;;;;;;;;;;5034005;28;20060;-79
2022/10/30 02:14:15;;;;;;;15.53;7.63;;;;;;;;;;5024492;28;20028;-78
2022/10/30 02:16:44;;;;;;;22.80;8.47;;;;;;;;;;5023645;28;20030;-80
2022/10/30 02:19:10;;;;;;;16.70;7.43;;;;;;;;;;5025825;28;20034;-80
2022/10/30 02:21:36;;;;;;;20.37;8.43;;;;;;;;;;5024446;28;20068;-80
2022/10/30 02:24:02;;;;;;;21.60;8.17;;;;;;;;;;5032525;28;20061;-79
2022/10/30 02:26:28;;;;;;;18.17;8.97;;;;;;;;;;5026438;28;20084;-79
2022/10/30 02:28:56;;;;;;;23.60;8.50;;;;;;;;;;5026655;28;20042;-78
2022/10/30 02:31:22;;;;;;;20.27;8.57;;;;;;;;;;5022570;28;20030;-80
2022/10/30 02:33:49;;;;;;;14.90;7.20;;;;;;;;;;5044727;28;20100;-80
2022/10/30 02:36:18;;;;;;;27.47;12.87;;;;;;;;;;5019718;28;20464;-80
2022/10/30 02:38:47;;;;;;;21.63;10.73;;;;;;;;;;5034205;28;20022;-77
2022/10/30 02:41:15;;;;;;;27.20;15.23;;;;;;;;;;5019066;28;20123;-77
2022/10/30 02:43:41;;;;;;;27.27;12.73;;;;;;;;;;5021302;28;20032;-80
2022/10/30 02:46:07;;;;;;;21.33;8.97;;;;;;;;;;5021109;28;20116;-77
2022/10/30 02:48:34;;;;;;;18.13;9.10;;;;;;;;;;5021757;28;20014;-79
2022/10/30 02:51:03;;;;;;;23.47;9.90;;;;;;;;;;5023944;28;20041;-77
2022/10/30 02:53:29;;;;;;;20.87;9.93;;;;;;;;;;5023609;28;20053;-80
2022/10/30 02:55:55;;;;;;;24.00;9.37;;;;;;;;;;5041024;28;20022;-77
2022/10/30 02:58:21;;;;;;;19.50;9.30;;;;;;;;;;5017770;28;20033;-80
2022/10/30 03:00:47;;;;;;;17.67;9.93;;;;;;;;;;5055565;28;20033;-77
2022/10/30 03:03:13;;;;;;;15.33;9.03;;;;;;;;;;5024673;28;20442;-79
2022/10/30 03:05:39;;;;;;;18.17;9.67;;;;;;;;;;5019891;28;21613;-77
2022/10/30 03:08:05;;;;;;;20.20;8.27;;;;;;;;;;5019730;28;20042;-80
2022/10/30 03:10:31;;;;;;;19.80;8.87;;;;;;;;;;5031317;28;20045;-79
2022/10/30 03:12:58;;;;;;;22.47;10.00;;;;;;;;;;5022214;28;20026;-79
2022/10/30 03:15:24;;;;;;;26.27;10.17;;;;;;;;;;5032068;28;20109;-79
2022/10/30 03:17:51;;;;;;;18.20;11.87;;;;;;;;;;5017811;28;20068;-79
2022/10/30 03:20:18;;;;;;;28.70;14.67;;;;;;;;;;5036587;28;20026;-79
2022/10/30 03:22:44;;;;;;;25.93;10.53;;;;;;;;;;5021273;28;20036;-79
2022/10/30 03:25:10;;;;;;;20.80;10.23;;;;;;;;;;5025002;28;20041;-79
2022/10/30 03:27:36;;;;;;;23.23;9.70;;;;;;;;;;5019735;28;20029;-79
2022/10/30 03:30:02;;;;;;;23.83;11.53;;;;;;;;;;5034399;28;20044;-79
2022/10/30 03:32:28;;;;;;;17.97;10.53;;;;;;;;;;5023044;28;20041;-79
2022/10/30 03:34:54;;;;;;;21.37;9.57;;;;;;;;;;5023053;28;20041;-79
2022/10/30 03:37:20;;;;;;;30.57;9.73;;;;;;;;;;5023106;28;20108;-79
2022/10/30 03:39:46;;;;;;;25.30;13.40;;;;;;;;;;5019188;28;20499;-78
2022/10/30 03:42:12;;;;;;;26.37;11.50;;;;;;;;;;5019348;28;20041;-79
2022/10/30 03:44:38;;;;;;;28.97;9.90;;;;;;;;;;5028848;28;20030;-79
2022/10/30 03:47:04;;;;;;;18.97;9.17;;;;;;;;;;5020402;28;20056;-79
2022/10/30 03:49:30;;;;;;;21.57;10.43;;;;;;;;;;5018714;28;20025;-79
2022/10/30 03:51:56;;;;;;;17.60;10.30;;;;;;;;;;5032915;28;21732;-79
2022/10/30 03:54:22;;;;;;;23.20;10.60;;;;;;;;;;5020426;28;20038;-78
2022/10/30 03:56:48;;;;;;;23.80;12.33;;;;;;;;;;5020860;28;20040;-79
2022/10/30 03:59:14;;;;;;;26.93;13.47;;;;;;;;;;5018204;28;20116;-79
2022/10/30 04:01:40;;;;;;;22.80;10.40;;;;;;;;;;5034977;28;20029;-79
2022/10/30 04:04:06;;;;;;;20.90;8.93;;;;;;;;;;5037567;28;20033;-79
2022/10/30 04:06:32;;;;;;;32.73;12.50;;;;;;;;;;5018828;28;20033;-80
2022/10/30 04:08:58;;;;;;;22.87;10.63;;;;;;;;;;5024127;28;20430;-79
2022/10/30 04:11:24;;;;;;;25.87;11.43;;;;;;;;;;5020178;28;20026;-80
2022/10/30 04:13:50;;;;;;;26.60;10.60;;;;;;;;;;5016818;28;20083;-79
2022/10/30 04:16:16;;;;;;;15.83;9.53;;;;;;;;;;5017899;28;20091;-79
2022/10/30 04:18:42;;;;;;;25.53;10.37;;;;;;;;;;5018652;28;20116;-78
2022/10/30 04:21:07;;;;;;;21.77;10.60;;;;;;;;;;5024105;28;20029;-80
2022/10/30 04:23:33;;;;;;;19.17;10.73;;;;;;;;;;5022617;28;20064;-80
2022/10/30 04:26:00;;;;;;;30.63;12.23;;;;;;;;;;5031858;28;20045;-79
2022/10/30 04:28:27;;;;;;;20.13;10.73;;;;;;;;;;5020318;28;20029;-79
2022/10/30 04:30:53;;;;;;;24.13;10.60;;;;;;;;;;5034910;28;20034;-79
2022/10/30 04:33:19;;;;;;;17.63;10.70;;;;;;;;;;5022078;28;20032;-79
2022/10/30 04:35:45;;;;;;;17.90;9.53;;;;;;;;;;5032697;28;20076;-79
2022/10/30 04:38:12;;;;;;;18.70;9.93;;;;;;;;;;5019721;28;20032;-79
2022/10/30 04:40:39;;;;;;;25.13;11.03;;;;;;;;;;5021385;28;20022;-79
2022/10/30 04:43:06;;;;;;;24.20;11.67;;;;;;;;;;5021418;28;20033;-79
2022/10/30 04:45:32;;;;;;;21.07;12.00;;;;;;;;;;5028817;28;20899;-79
2022/10/30 04:48:02;;;;;;;22.97;11.90;;;;;;;;;;5034618;28;20033;-78
2022/10/30 04:50:28;;;;;;;25.10;10.43;;;;;;;;;;5038112;28;20033;-79
2022/10/30 04:53:01;;;;;;;21.27;11.00;;;;;;;;;;5021051;28;20414;-79
2022/10/30 04:55:27;;;;;;;26.10;11.50;;;;;;;;;;5019654;28;20037;-79
2022/10/30 04:58:01;;;;;;;15.13;11.13;;;;;;;;;;5037709;28;20386;-79
2022/10/30 05:00:28;;;;;;;26.80;11.70;;;;;;;;;;5033286;28;20037;-79
2022/10/30 05:02:54;;;;;;;29.97;13.60;;;;;;;;;;5022169;28;20037;-80
2022/10/30 05:05:20;;;;;;;26.07;10.63;;;;;;;;;;5034048;28;20088;-80
2022/10/30 05:07:46;;;;;;;24.53;10.50;;;;;;;;;;5023036;28;20120;-79
2022/10/30 05:10:13;;;;;;;20.37;10.87;;;;;;;;;;5024620;28;20025;-79
2022/10/30 05:12:41;;;;;;;25.93;11.17;;;;;;;;;;5034741;28;20036;-80
2022/10/30 05:15:07;;;;;;;21.83;11.73;;;;;;;;;;5029311;28;20053;-80
2022/10/30 05:17:33;;;;;;;24.97;11.57;;;;;;;;;;5025715;28;20086;-79
2022/10/30 05:19:59;;;;;;;24.60;12.13;;;;;;;;;;5022945;28;20045;-79
2022/10/30 05:22:25;;;;;;;23.30;11.70;;;;;;;;;;5022576;28;20503;-79
2022/10/30 05:24:51;;;;;;;30.97;11.63;;;;;;;;;;5023260;28;20037;-79
2022/10/30 05:27:17;;;;;;;27.70;13.90;;;;;;;;;;5024855;28;20026;-79
2022/10/30 05:29:43;;;;;;;31.80;14.47;;;;;;;;;;5037312;28;20455;-80
2022/10/30 05:32:08;;;;;;;23.63;11.17;;;;;;;;;;5035155;28;20084;-80
2022/10/30 05:34:34;;;;;;;37.07;10.80;;;;;;;;;;5022575;28;20381;-79
2022/10/30 05:37:00;;;;;;;23.80;10.90;;;;;;;;;;5039058;28;20044;-79
2022/10/30 05:39:27;;;;;;;25.40;12.07;;;;;;;;;;5026081;28;20029;-80
2022/10/30 05:41:53;;;;;;;26.30;12.37;;;;;;;;;;5021577;28;20091;-80
2022/10/30 05:44:19;;;;;;;23.77;11.63;;;;;;;;;;5026845;28;20025;-79
2022/10/30 05:46:45;;;;;;;26.17;11.17;;;;;;;;;;5025298;28;20044;-79
2022/10/30 05:49:11;;;;;;;22.87;11.33;;;;;;;;;;5042310;28;20107;-79
2022/10/30 05:51:37;;;;;;;27.73;12.30;;;;;;;;;;5023896;28;20053;-79
2022/10/30 05:54:03;;;;;;;19.80;10.93;;;;;;;;;;5024099;28;20457;-79
2022/10/30 05:56:29;;;;;;;23.77;12.87;;;;;;;;;;5025255;28;20109;-79
2022/10/30 05:58:55;;;;;;;25.63;12.10;;;;;;;;;;5018766;28;20064;-79
2022/10/30 06:01:21;;;;;;;20.53;11.80;;;;;;;;;;5026211;28;20898;-80
2022/10/30 06:03:47;;;;;;;24.30;11.53;;;;;;;;;;5034134;28;20038;-79
2022/10/30 06:06:13;;;;;;;25.27;12.50;;;;;;;;;;5039939;28;20025;-79
2022/10/30 06:08:39;;;;;;;25.57;11.23;;;;;;;;;;5025906;28;20021;-79
2022/10/30 06:11:05;;;;;;;20.37;11.10;;;;;;;;;;5034759;28;20486;-79
2022/10/30 06:13:31;;;;;;;30.20;11.17;;;;;;;;;;5038192;28;20057;-79
2022/10/30 06:15:57;;;;;;;24.73;11.50;;;;;;;;;;5040899;28;20465;-79
2022/10/30 06:18:23;;;;;;;25.33;11.83;;;;;;;;;;5038113;28;20029;-79
2022/10/30 06:20:49;;;;;;;25.90;10.63;;;;;;;;;;5022778;28;20511;-79
2022/10/30 06:23:15;;;;;;;28.43;14.77;;;;;;;;;;5036152;28;20022;-79
2022/10/30 06:25:41;;;;;;;30.77;13.17;;;;;;;;;;5032360;28;20120;-79
2022/10/30 06:28:07;;;;;;;25.37;11.50;;;;;;;;;;5022871;28;20029;-79
2022/10/30 06:30:33;;;;;;;23.00;11.60;;;;;;;;;;5021920;28;20347;-79
2022/10/30 06:33:00;;;;;;;31.90;15.17;;;;;;;;;;5033057;28;20064;-79
2022/10/30 06:35:27;;;;;;;27.80;14.20;;;;;;;;;;5017970;28;20025;-79
2022/10/30 06:37:55;;;;;;;24.60;12.63;;;;;;;;;;5022980;28;20030;-78
2022/10/30 06:40:21;;;;;;;26.40;11.33;;;;;;;;;;5019915;28;20050;-79
2022/10/30 06:42:48;;;;;;;26.13;13.63;;;;;;;;;;5022160;28;20900;-78
2022/10/30 06:45:15;;;;;;;21.57;10.70;;;;;;;;;;5031373;28;20034;-80
2022/10/30 06:47:41;;;;;;;24.37;12.20;;;;;;;;;;5024876;28;20088;-80
2022/10/30 06:50:08;;;;;;;28.50;11.10;;;;;;;;;;5039440;28;20048;-79
2022/10/30 06:52:34;;;;;;;21.60;10.97;;;;;;;;;;5029748;28;20112;-79
2022/10/30 06:55:01;;;;;;;22.30;11.47;;;;;;;;;;5024226;28;20044;-80
2022/10/30 06:57:27;;;;;;;25.03;11.23;;;;;;;;;;5039346;28;20022;-80
2022/10/30 06:59:53;;;;;;;23.73;11.03;;;;;;;;;;5037657;28;20079;-80
2022/10/30 07:02:19;;;;;;;25.80;11.60;;;;;;;;;;5023480;28;20026;-79
2022/10/30 07:04:45;;;;;;;23.33;11.43;;;;;;;;;;5025946;28;20037;-79
2022/10/30 07:07:12;;;;;;;29.93;11.30;;;;;;;;;;5037409;28;20034;-79
2022/10/30 07:09:38;;;;;;;23.70;10.90;;;;;;;;;;5039107;28;20026;-79
2022/10/30 07:12:04;;;;;;;21.13;10.87;;;;;;;;;;5024507;28;20473;-79
2022/10/30 07:14:30;;;;;;;17.57;10.03;;;;;;;;;;5020719;28;20017;-79
2022/10/30 07:16:56;;;;;;;22.87;10.77;;;;;;;;;;5021315;28;20033;-80
2022/10/30 07:19:22;;;;;;;19.80;9.77;;;;;;;;;;5032927;28;20343;-79
2022/10/30 07:21:48;;;;;;;21.43;10.43;;;;;;;;;;5032018;28;20041;-80
2022/10/30 07:24:15;;;;;;;21.37;10.70;;;;;;;;;;5038281;28;20042;-79
2022/10/30 07:26:41;;;;;;;23.00;10.50;;;;;;;;;;5022964;28;20025;-80
2022/10/30 07:29:07;;;;;;;20.40;9.57;;;;;;;;;;5020482;28;20041;-79
2022/10/30 07:31:33;;;;;;;18.57;10.73;;;;;;;;;;5032694;28;20025;-79
2022/10/30 07:33:59;;;;;;;18.07;9.83;;;;;;;;;;5021759;28;20030;-79
2022/10/30 07:36:25;;;;;;;19.13;9.97;;;;;;;;;;5025866;28;20036;-79
2022/10/30 07:38:51;;;;;;;19.67;9.60;;;;;;;;;;5020259;28;20022;-80
2022/10/30 07:41:18;;;;;;;18.10;10.07;;;;;;;;;;5022181;28;20100;-80
2022/10/30 07:43:44;;;;;;;16.70;9.30;;;;;;;;;;5025339;28;20026;-79
2022/10/30 07:46:10;;;;;;;21.20;9.50;;;;;;;;;;5027800;28;20033;-79
2022/10/30 07:48:36;;;;;;;23.70;9.77;;;;;;;;;;5022507;28;20048;-79
2022/10/30 07:51:03;;;;;;;21.17;8.70;;;;;;;;;;5034830;28;20077;-79
2022/10/30 07:53:29;;;;;;;23.93;8.57;;;;;;;;;;5037652;28;20489;-79
2022/10/30 07:55:55;;;;;;;18.73;9.27;;;;;;;;;;5020179;28;20029;-80
2022/10/30 07:58:21;;;;;;;15.67;8.17;;;;;;;;;;5024778;28;20022;-79
2022/10/30 08:00:47;;;;;;;24.33;8.37;;;;;;;;;;5020325;28;20116;-80
2022/10/30 08:03:14;;;;;;;19.93;8.90;;;;;;;;;;5038309;28;20354;-79
2022/10/30 08:05:40;;;;;;;16.73;7.63;;;;;;;;;;5025218;28;20062;-80
2022/10/30 08:08:06;;;;;;;15.57;7.53;;;;;;;;;;5023649;28;20104;-79
2022/10/30 08:10:32;;;;;;;16.80;8.80;;;;;;;;;;5024294;28;20033;-79
2022/10/30 08:12:58;;;;;;;30.83;8.20;;;;;;;;;;5033354;28;20437;-79
2022/10/30 08:15:25;;;;;;;20.33;8.47;;;;;;;;;;5023997;28;20022;-79
2022/10/30 08:17:53;;;;;;;17.98;7.93;;;;;;;;;;5035240;28;20037;-80
2022/10/30 08:20:20;;;;;;;20.07;8.60;;;;;;;;;;5021034;28;20052;-80
2022/10/30 08:22:50;;;;;;;18.60;6.70;;;;;;;;;;5019417;28;20125;-79
2022/10/30 08:25:17;;;;;;;17.30;6.95;;;;;;;;;;5019524;28;20025;-80
2022/10/30 08:27:54;;;;;;;15.05;7.05;;;;;;;;;;5027505;28;20040;-79
2022/10/30 08:30:20;;;;;;;17.08;7.70;;;;;;;;;;5024718;28;20037;-80
2022/10/30 08:32:46;;;;;;;19.58;8.25;;;;;;;;;;5031560;28;20025;-80
2022/10/30 08:35:13;;;;;;;25.65;8.60;;;;;;;;;;5036077;28;20970;-79
2022/10/30 08:37:39;;;;;;;16.42;7.20;;;;;;;;;;5021036;28;20033;-79
2022/10/30 08:40:05;;;;;;;16.98;6.95;;;;;;;;;;5024351;28;20030;-79
2022/10/30 08:42:31;;;;;;;17.20;6.90;;;;;;;;;;5022607;28;20033;-79
2022/10/30 08:44:57;;;;;;;20.30;6.80;;;;;;;;;;5020407;28;20045;-80
2022/10/30 08:47:23;;;;;;;20.40;8.00;;;;;;;;;;5020172;28;20030;-79
2022/10/30 08:49:49;;;;;;;16.83;7.13;;;;;;;;;;5020255;28;20056;-79
2022/10/30 08:52:15;;;;;;;16.88;7.07;;;;;;;;;;5018150;28;20040;-80
2022/10/30 08:54:41;;;;;;;21.00;7.05;;;;;;;;;;5030571;28;20057;-80
2022/10/30 08:57:07;;;;;;;10.07;6.05;;;;;;;;;;5022424;28;20026;-79
2022/10/30 08:59:35;;;;;;;15.68;7.18;;;;;;;;;;5038736;28;20089;-80
2022/10/30 09:02:01;;;;;;;13.60;6.88;;;;;;;;;;5020572;28;20042;-79
2022/10/30 09:04:27;;;;;;;17.35;6.93;;;;;;;;;;5020868;28;21204;-79
2022/10/30 09:06:53;;;;;;;21.65;7.07;;;;;;;;;;5019308;28;20037;-79
2022/10/30 09:09:19;;;;;;;15.18;6.00;;;;;;;;;;5033954;28;20414;-80
2022/10/30 09:11:47;;;;;;;13.05;6.35;;;;;;;;;;5019592;28;20091;-79
2022/10/30 09:14:13;;;;;;;19.75;7.47;;;;;;;;;;5021734;28;20034;-80
2022/10/30 09:16:39;;;;;;;21.65;6.85;;;;;;;;;;5022142;28;20037;-79
2022/10/30 09:19:08;;;;;;;16.75;5.82;;;;;;;;;;5018396;28;20331;-79
2022/10/30 09:21:36;;;;;;;15.02;6.18;;;;;;;;;;5021677;28;20026;-79
2022/10/30 09:24:05;;;;;;;14.50;6.40;;;;;;;;;;5022065;28;20490;-79
2022/10/30 09:26:31;;;;;;;21.75;7.10;;;;;;;;;;5031541;28;20030;-80
2022/10/30 09:28:59;;;;;;;12.68;5.97;;;;;;;;;;5021170;28;20056;-79
2022/10/30 09:31:25;;;;;;;15.75;6.20;;;;;;;;;;5022983;28;20034;-80
2022/10/30 09:33:51;;;;;;;18.90;6.82;;;;;;;;;;5033968;28;20523;-79
2022/10/30 09:36:17;;;;;;;15.90;6.75;;;;;;;;;;5033409;28;20050;-79
2022/10/30 09:38:44;;;;;;;18.58;9.65;;;;;;;;;;5032689;28;20122;-80
2022/10/30 09:41:17;;;;;;;15.13;5.78;;;;;;;;;;5032990;28;20025;-79
2022/10/30 09:44:02;;;;;;;17.88;7.70;;;;;;;;;;5030630;28;20462;-79
2022/10/30 09:46:46;;;;;;;18.23;8.63;;;;;;;;;;5021843;28;20049;-79
2022/10/30 09:49:12;;;;;;;16.95;6.35;;;;;;;;;;5020147;28;20037;-80
2022/10/30 09:51:57;;;;;;;11.25;6.03;;;;;;;;;;5035099;28;20026;-79
2022/10/30 09:54:34;;;;;;;15.70;6.85;;;;;;;;;;5031007;28;20053;-79
2022/10/30 09:57:05;;;;;;;15.13;5.82;;;;;;;;;;5033275;28;20124;-79
2022/10/30 09:59:40;;;;;;;11.55;5.53;;;;;;;;;;5023376;28;20034;-80
2022/10/30 10:02:25;;;;;;;18.48;5.05;;;;;;;;;;5025355;28;20034;-80
2022/10/30 10:04:54;;;;;;;10.85;5.07;;;;;;;;;;5037130;28;20041;-79
2022/10/30 10:07:26;;;;;;;16.10;5.47;;;;;;;;;;5033178;28;20895;-80
2022/10/30 10:09:55;;;;;;;12.27;5.45;;;;;;;;;;5023095;28;20066;-80
2022/10/30 10:12:35;;;;;;;15.40;5.32;;;;;;;;;;5023751;28;20022;-79
2022/10/30 10:15:04;;;;;;;22.33;6.25;;;;;;;;;;5023467;28;20092;-79
2022/10/30 10:17:33;;;;;;;18.00;6.45;;;;;;;;;;5033544;28;20021;-80
2022/10/30 10:20:02;;;;;;;16.67;6.00;;;;;;;;;;5021690;28;20441;-79
2022/10/30 10:22:33;;;;;;;17.17;6.85;;;;;;;;;;5032375;28;20101;-80
2022/10/30 10:24:59;;;;;;;14.18;5.60;;;;;;;;;;5038430;28;20025;-80
2022/10/30 10:27:25;;;;;;;16.02;5.78;;;;;;;;;;5030935;28;20038;-80
2022/10/30 10:30:09;;;;;;;14.75;6.03;;;;;;;;;;5022388;28;20034;-79
2022/10/30 10:32:41;;;;;;;16.63;5.82;;;;;;;;;;5020444;28;20059;-80
2022/10/30 10:35:17;;;;;;;10.07;4.60;;;;;;;;;;5021792;28;20541;-76
2022/10/30 10:37:43;;;;;;;13.88;4.90;;;;;;;;;;5048169;28;20038;-74
2022/10/30 10:40:15;;;;;;;20.85;7.40;;;;;;;;;;5028626;28;20037;-74
2022/10/30 10:42:41;;;;;;;;;;;;;;;;;;5017581;28;20133;-74
2022/10/30 10:45:16;;;;;;;15.55;7.88;;;;;;;;;;5018193;28;20593;-74
2022/10/30 10:47:51;;;;;;;14.07;6.15;;;;;;;;;;5016413;28;20041;-77
2022/10/30 10:50:25;;;;;;;19.45;5.57;;;;;;;;;;5028954;28;20103;-76
2022/10/30 10:52:51;;;;;;;15.48;4.93;;;;;;;;;;5028930;28;20033;-75
2022/10/30 10:55:23;;;;;;;16.23;5.07;;;;;;;;;;5015754;28;20038;-75
2022/10/30 10:57:51;;;;;;;10.25;4.80;;;;;;;;;;5015712;28;20156;-75
2022/10/30 11:00:21;;;;;;;18.33;8.38;;;;;;;;;;5014176;28;20820;-75
2022/10/30 11:02:59;;;;;;;12.98;7.15;;;;;;;;;;5016123;28;20048;-76
2022/10/30 11:05:30;;;;;;;15.60;5.50;;;;;;;;;;5015868;28;20034;-75
2022/10/30 11:07:58;;;;;;;16.00;4.93;;;;;;;;;;5014978;28;20033;-74
2022/10/30 11:10:25;;;;;;;15.15;6.22;;;;;;;;;;5015569;28;20369;-74
2022/10/30 11:12:51;;;;;;;16.38;5.93;;;;;;;;;;5016902;28;20144;-75
2022/10/30 11:15:32;;;;;;;15.65;5.80;;;;;;;;;;5023981;28;20041;-75
2022/10/30 11:18:08;;;;;;;16.42;5.20;;;;;;;;;;5026325;28;20029;-74
2022/10/30 11:20:38;;;;;;;13.10;4.95;;;;;;;;;;5025158;28;20033;-74
2022/10/30 11:23:04;;;;;;;20.50;5.60;;;;;;;;;;5024631;28;20065;-75
2022/10/30 11:25:35;;;;;;;16.63;5.22;;;;;;;;;;5015830;28;20049;-75
2022/10/30 11:28:03;;;;;;;13.10;4.50;;;;;;;;;;5024664;28;20034;-75
2022/10/30 11:30:29;;;;;;;14.77;5.38;;;;;;;;;;5016912;28;20034;-74
2022/10/30 11:32:56;;;;;;;14.40;5.65;;;;;;;;;;5015058;28;20041;-75
2022/10/30 11:35:22;;;;;;;14.05;5.28;;;;;;;;;;5017706;28;20030;-75
2022/10/30 11:37:49;;;;;;;17.95;6.97;;;;;;;;;;5017081;28;20029;-75
2022/10/30 11:40:17;;;;;;;11.68;5.10;;;;;;;;;;5017829;28;20037;-74
2022/10/30 11:42:51;;;;;;;15.80;5.10;;;;;;;;;;5024679;28;20033;-75
2022/10/30 11:45:30;;;;;;;17.73;4.78;;;;;;;;;;5016973;28;20497;-75
2022/10/30 11:47:58;;;;;;;20.33;6.07;;;;;;;;;;5015700;28;20060;-76
2022/10/30 11:50:34;;;;;;;13.60;5.40;;;;;;;;;;5014201;28;20427;-74
2022/10/30 11:53:09;;;;;;;20.05;4.88;;;;;;;;;;5020747;28;20048;-75
2022/10/30 11:55:45;;;;;;;15.13;5.82;;;;;;;;;;5030746;28;20114;-74
2022/10/30 11:58:21;;;;;;;13.25;5.55;;;;;;;;;;5017202;28;20025;-75
2022/10/30 12:00:58;;;;;;;17.08;4.30;;;;;;;;;;5015517;28;20038;-75
2022/10/30 12:03:28;;;;;;;12.98;4.32;;;;;;;;;;5015563;28;20038;-73
2022/10/30 12:06:06;;;;;;;18.65;4.97;;;;;;;;;;5027722;28;20033;-74
2022/10/30 12:08:32;;;;;;;12.30;4.47;;;;;;;;;;5023331;28;20116;-74
2022/10/30 12:11:00;;;;;;;12.57;4.30;;;;;;;;;;5026361;28;20038;-75
2022/10/30 12:13:26;;;;;;;15.45;5.80;;;;;;;;;;5013735;28;21684;-78
2022/10/30 12:16:12;;;;;;;13.82;4.78;;;;;;;;;;5017529;28;20467;-79
2022/10/30 12:18:39;;;;;;;14.95;5.13;;;;;;;;;;5019622;28;20084;-80
2022/10/30 12:21:05;;;;;;;14.20;4.80;;;;;;;;;;5030399;28;20434;-82
2022/10/30 12:23:32;;;;;;;11.48;4.82;;;;;;;;;;5017857;28;20017;-78
2022/10/30 12:26:08;;;;;;;21.40;6.30;;;;;;;;;;5021081;28;20026;-79
2022/10/30 12:28:34;;;;;;;11.23;4.70;;;;;;;;;;5035064;28;20800;-80
2022/10/30 12:31:02;;;;;;;13.25;4.57;;;;;;;;;;5016821;28;20156;-80
2022/10/30 12:33:50;;;;;;;18.45;4.25;;;;;;;;;;5020314;28;20092;-80
2022/10/30 12:36:19;;;;;;;14.52;4.82;;;;;;;;;;5019000;28;20044;-81
2022/10/30 12:38:51;;;;;;;13.80;4.55;;;;;;;;;;5033521;28;20157;-79
2022/10/30 12:41:23;;;;;;;12.23;4.63;;;;;;;;;;5022884;28;20045;-79
2022/10/30 12:43:57;;;;;;;11.95;4.47;;;;;;;;;;5029727;28;20107;-79
2022/10/30 12:46:23;;;;;;;16.05;5.10;;;;;;;;;;5028233;28;20187;-79
2022/10/30 12:48:52;;;;;;;7.30;4.05;;;;;;;;;;5021711;28;20030;-80
2022/10/30 12:51:23;;;;;;;14.70;4.43;;;;;;;;;;5019140;28;20026;-81
2022/10/30 12:54:13;;;;;;;11.53;4.70;;;;;;;;;;5018179;28;20025;-81
2022/10/30 12:56:42;;;;;;;14.52;4.60;;;;;;;;;;5017531;28;20277;-81
2022/10/30 12:59:27;;;;;;;10.20;4.78;;;;;;;;;;5021884;28;20466;-79
2022/10/30 13:02:04;;;;;;;11.00;3.88;;;;;;;;;;5029823;28;20083;-79
2022/10/30 13:04:36;;;;;;;14.68;5.47;;;;;;;;;;5026966;28;20037;-79
2022/10/30 13:07:02;;;;;;;;;;;;;;;;;;5034116;28;20049;-78
2022/10/30 13:09:34;;;;;;;11.25;4.28;;;;;;;;;;5019562;28;20306;-78
2022/10/30 13:12:12;;;;;;;16.90;4.25;;;;;;;;;;5020621;28;20025;-78
2022/10/30 13:15:05;;;;;;;14.70;4.20;;;;;;;;;;5019828;28;20025;-77
2022/10/30 13:17:31;;;;;;;14.32;4.55;;;;;;;;;;5020729;28;20116;-79
2022/10/30 13:19:57;;;;;;;19.95;5.05;;;;;;;;;;5031682;28;20389;-79
2022/10/30 13:22:29;;;;;;;15.93;4.47;;;;;;;;;;5015930;28;20041;-79
2022/10/30 13:24:58;;;;;;;15.63;4.43;;;;;;;;;;5027179;28;20092;-79
2022/10/30 13:27:27;;;;;;;12.43;4.15;;;;;;;;;;5018250;28;20030;-79
2022/10/30 13:30:08;;;;;;;13.95;3.97;;;;;;;;;;5029030;28;20034;-79
2022/10/30 13:32:37;;;;;;;10.35;4.00;;;;;;;;;;5031986;28;20056;-79
2022/10/30 13:35:21;;;;;;;17.63;4.93;;;;;;;;;;5019397;28;20034;-77
2022/10/30 13:37:47;;;;;;;13.27;5.07;;;;;;;;;;5030038;28;20026;-79
2022/10/30 13:40:35;;;;;;;9.48;4.72;;;;;;;;;;5019129;28;21704;-79
2022/10/30 13:43:01;;;;;;;12.45;3.80;;;;;;;;;;5028585;28;20053;-80
2022/10/30 13:45:36;;;;;;;13.05;3.40;;;;;;;;;;5034253;28;20459;-79
2022/10/30 13:48:05;;;;;;;16.85;4.70;;;;;;;;;;5023875;28;20100;-78
2022/10/30 13:50:37;;;;;;;13.25;4.03;;;;;;;;;;5036330;28;20037;-78
2022/10/30 13:53:05;;;;;;;22.23;6.10;;;;;;;;;;5036058;28;20084;-80
2022/10/30 13:55:35;;;;;;;10.13;3.55;;;;;;;;;;5019522;28;20025;-81
2022/10/30 13:58:03;;;;;;;12.30;3.90;;;;;;;;;;5019514;28;20022;-80
2022/10/30 14:00:50;;;;;;;16.13;4.03;;;;;;;;;;5032737;28;20026;-80
2022/10/30 14:03:37;;;;;;;11.02;4.05;;;;;;;;;;5020304;28;20034;-81
2022/10/30 14:06:03;;;;;;;13.18;3.55;;;;;;;;;;5035233;28;20022;-80
2022/10/30 14:08:39;;;;;;;10.13;3.90;;;;;;;;;;5024208;28;21823;-80
2022/10/30 14:11:05;;;;;;;15.55;4.90;;;;;;;;;;5021035;28;20034;-81
2022/10/30 14:13:34;;;;;;;10.05;4.25;;;;;;;;;;5019606;28;20022;-79
2022/10/30 14:16:20;;;;;;;14.10;4.65;;;;;;;;;;5032362;28;20029;-80
2022/10/30 14:19:09;;;;;;;11.35;5.13;;;;;;;;;;5025438;28;20108;-80
2022/10/30 14:21:41;;;;;;;9.30;4.47;;;;;;;;;;5035646;28;20026;-80
2022/10/30 14:24:07;;;;;;;;;;;;;;;;;;5019443;28;20049;-80
2022/10/30 14:26:33;;;;;;;11.50;4.95;;;;;;;;;;5017868;28;20849;-80
2022/10/30 14:29:19;;;;;;;11.52;4.35;;;;;;;;;;5021335;28;20382;-80
2022/10/30 14:31:45;;;;;;;9.38;4.22;;;;;;;;;;5033272;28;20038;-80
2022/10/30 14:34:30;;;;;;;12.43;4.05;;;;;;;;;;5032391;28;20021;-79
2022/10/30 14:36:56;;;;;;;16.35;4.43;;;;;;;;;;5020725;28;20430;-80
2022/10/30 14:39:27;;;;;;;16.35;5.90;;;;;;;;;;5018154;28;20045;-79